Cache, Illinois
Current Conditions -  °F | °C
As of 12:15 PM on Friday 31 Oct 2014 (Local Time) from KCIR Reporting Station
Overcast Overcast  
Wind Chill: 52°   Ceiling: 4400
Heat Index: 52°   Visibility: 10mi
Dew Point: 36°   Wind: 21mph
Humidity: 54%   Direction: 320°NW
Pressure: 30.17"   Gusts: 29mph
Location:  37.1°N, 89.26°W
Report Text: KCIR 311715Z AUTO 32018G25KT 10SM SCT029 BKN044 OVC050 11/02 A3017 RMK AO2 T01130024
Loading
Personal Weather Stations






























Interactive Weather Map
Tropical Storm Tracking
New forecast layout! Learn more

10-Day Weather Forecast

Advertisements
Track Severe Weather on mobile